Time,TemperatureF,DewpointF,PressureIn,WindDirection,WindDirectionDegrees,WindSpeedMPH,WindSpeedGustMPH,Humidity,HourlyPrecipIn,Conditions,Clouds,dailyrainin,SoftwareType,DateUTC
2013-05-05 00:03:00,73.0,-99.9,29.96,NE,37,4.0,6.0,-999,-99.99,,,-99.99,,2013-05-05 10:03:00,
2013-05-05 00:12:00,74.0,-99.9,29.96,NE,50,2.0,4.0,-999,-99.99,,,-99.99,,2013-05-05 10:12:00,
2013-05-05 00:22:00,73.0,-99.9,29.96,ENE,61,2.0,4.0,-999,-99.99,,,-99.99,,2013-05-05 10:22:00,
2013-05-05 00:32:00,73.0,-99.9,29.96,ENE,77,1.0,3.0,-999,-99.99,,,-99.99,,2013-05-05 10:32:00,
2013-05-05 00:42:00,74.0,-99.9,29.96,NNW,328,2.0,3.0,-999,-99.99,,,-99.99,,2013-05-05 10:42:00,
2013-05-05 00:53:00,74.0,-99.9,29.95,North,4,4.0,5.0,-999,-99.99,,,-99.99,,2013-05-05 10:53:00,
2013-05-05 01:02:00,74.0,-99.9,29.95,NE,39,1.0,2.0,-999,-99.99,,,-99.99,,2013-05-05 11:02:00,
2013-05-05 01:12:00,74.0,-99.9,29.95,NE,44,1.0,2.0,-999,-99.99,,,-99.99,,2013-05-05 11:12:00,
2013-05-05 01:22:00,74.0,-99.9,29.95,ENE,69,2.0,3.0,-999,-99.99,,,-99.99,,2013-05-05 11:22:00,
2013-05-05 01:32:00,74.0,-99.9,29.95,NE,46,1.0,1.0,-999,-99.99,,,-99.99,,2013-05-05 11:32:00,
2013-05-05 01:42:00,74.0,-99.9,29.95,NE,35,1.0,2.0,-999,-99.99,,,-99.99,,2013-05-05 11:42:00,
2013-05-05 01:52:00,74.0,-99.9,29.94,NE,56,2.0,3.0,-999,-99.99,,,-99.99,,2013-05-05 11:52:00,
2013-05-05 02:02:00,74.0,-99.9,29.94,ENE,63,0.0,3.0,-999,-99.99,,,-99.99,,2013-05-05 12:02:00,
2013-05-05 02:12:00,74.0,-99.9,29.94,NNE,30,0.0,1.0,-999,-99.99,,,-99.99,,2013-05-05 12:12:00,
2013-05-05 02:22:00,74.0,-99.9,29.93,East,95,1.0,2.0,-999,-99.99,,,-99.99,,2013-05-05 12:22:00,
2013-05-05 02:32:00,74.0,-99.9,29.93,East,96,1.0,3.0,-999,-99.99,,,-99.99,,2013-05-05 12:32:00,
2013-05-05 02:42:00,74.0,-99.9,29.92,ENE,74,3.0,4.0,-999,-99.99,,,-99.99,,2013-05-05 12:42:00,
2013-05-05 02:52:00,74.0,-99.9,29.92,East,82,2.0,3.0,-999,-99.99,,,-99.99,,2013-05-05 12:52:00,
2013-05-05 03:01:00,74.0,-99.9,29.92,ENE,66,3.0,4.0,-999,-99.99,,,-99.99,,2013-05-05 13:01:00,
2013-05-05 03:11:00,74.0,-99.9,29.92,ENE,61,3.0,4.0,-999,-99.99,,,-99.99,,2013-05-05 13:11:00,
2013-05-05 03:21:00,74.0,-99.9,29.91,ENE,67,2.0,4.0,-999,-99.99,,,-99.99,,2013-05-05 13:21:00,
2013-05-05 03:32:00,74.0,-99.9,29.91,East,86,2.0,2.0,-999,-99.99,,,-99.99,,2013-05-05 13:32:00,
2013-05-05 03:42:00,74.0,-99.9,29.91,ENE,76,2.0,3.0,-999,-99.99,,,-99.99,,2013-05-05 13:42:00,
2013-05-05 03:52:00,73.0,-99.9,29.91,ENE,69,2.0,3.0,-999,-99.99,,,-99.99,,2013-05-05 13:52:00,
2013-05-05 04:02:00,73.0,-99.9,29.91,ENE,72,2.0,3.0,-999,-99.99,,,-99.99,,2013-05-05 14:02:00,
2013-05-05 04:11:00,73.0,-99.9,29.91,North,-999,1.0,3.0,-999,-99.99,,,-99.99,,2013-05-05 14:11:00,
2013-05-05 04:21:00,73.0,-99.9,29.90,NE,53,0.0,1.0,-999,-99.99,,,-99.99,,2013-05-05 14:21:00,
2013-05-05 04:32:00,73.0,-99.9,29.91,NE,52,1.0,2.0,-999,-99.99,,,-99.99,,2013-05-05 14:32:00,
2013-05-05 04:42:00,73.0,-99.9,29.90,ENE,60,2.0,2.0,-999,-99.99,,,-99.99,,2013-05-05 14:42:00,
2013-05-05 04:52:00,73.0,-99.9,29.91,North,-999,-999.0,-999.0,-999,-99.99,,,-99.99,,2013-05-05 14:52:00,
2013-05-05 05:02:00,74.0,-99.9,29.91,SSW,206,7.0,9.0,-999,-99.99,,,-99.99,,2013-05-05 15:02:00,
2013-05-05 05:11:00,73.0,-99.9,29.91,WSW,239,6.0,9.0,-999,-99.99,,,-99.99,,2013-05-05 15:11:00,
2013-05-05 05:21:00,72.0,-99.9,29.91,WSW,241,5.0,8.0,-999,-99.99,,,-99.99,,2013-05-05 15:21:00,
2013-05-05 05:33:00,72.0,-99.9,29.92,West,275,3.0,4.0,-999,-99.99,,,-99.99,,2013-05-05 15:33:00,
2013-05-05 05:43:00,72.0,-99.9,29.92,WNW,295,1.0,3.0,-999,-99.99,,,-99.99,,2013-05-05 15:43:00,
2013-05-05 05:53:00,72.0,-99.9,29.91,WNW,296,3.0,4.0,-999,-99.99,,,-99.99,,2013-05-05 15:53:00,
2013-05-05 06:03:00,72.0,-99.9,29.92,North,358,3.0,6.0,-999,-99.99,,,-99.99,,2013-05-05 16:03:00,
2013-05-05 06:12:00,72.0,-99.9,29.92,NNE,12,3.0,4.0,-999,-99.99,,,-99.99,,2013-05-05 16:12:00,
2013-05-05 06:23:00,72.0,-99.9,29.92,NNE,14,2.0,4.0,-999,-99.99,,,-99.99,,2013-05-05 16:23:00,
2013-05-05 06:32:00,72.0,-99.9,29.93,North,6,4.0,5.0,-999,-99.99,,,-99.99,,2013-05-05 16:32:00,
2013-05-05 06:42:00,72.0,-99.9,29.93,NNE,17,2.0,4.0,-999,-99.99,,,-99.99,,2013-05-05 16:42:00,
2013-05-05 06:53:00,72.0,-99.9,29.93,North,11,1.0,4.0,-999,-99.99,,,-99.99,,2013-05-05 16:53:00,
2013-05-05 07:02:00,72.0,-99.9,29.93,North,354,2.0,3.0,-999,-99.99,,,-99.99,,2013-05-05 17:02:00,
2013-05-05 07:12:00,73.0,-99.9,29.94,North,349,1.0,2.0,-999,-99.99,,,-99.99,,2013-05-05 17:12:00,
2013-05-05 07:23:00,73.0,-99.9,29.94,ESE,114,-999.0,1.0,-999,-99.99,,,-99.99,,2013-05-05 17:23:00,
2013-05-05 07:32:00,73.0,-99.9,29.95,SSE,148,5.0,9.0,-999,-99.99,,,-99.99,,2013-05-05 17:32:00,
2013-05-05 07:42:00,72.0,-99.9,29.95,SSE,158,5.0,9.0,-999,-99.99,,,-99.99,,2013-05-05 17:42:00,
2013-05-05 07:52:00,71.0,-99.9,29.96,SE,142,5.0,9.0,-999,-99.99,,,-99.99,,2013-05-05 17:52:00,
2013-05-05 08:01:00,70.0,-99.9,29.96,ESE,120,5.0,9.0,-999,-99.99,,,-99.99,,2013-05-05 18:01:00,
2013-05-05 08:12:00,70.0,-99.9,29.96,ESE,109,6.0,8.0,-999,-99.99,,,-99.99,,2013-05-05 18:12:00,
2013-05-05 08:22:00,70.0,-99.9,29.97,SE,126,5.0,7.0,-999,-99.99,,,-99.99,,2013-05-05 18:22:00,
2013-05-05 08:32:00,70.0,-99.9,29.97,East,84,4.0,6.0,-999,-99.99,,,-99.99,,2013-05-05 18:32:00,
2013-05-05 08:42:00,70.0,-99.9,29.97,East,92,4.0,5.0,-999,-99.99,,,-99.99,,2013-05-05 18:42:00,
2013-05-05 08:52:00,69.0,-99.9,29.96,ENE,67,3.0,6.0,-999,-99.99,,,-99.99,,2013-05-05 18:52:00,
2013-05-05 09:02:00,69.0,-99.9,29.97,NE,49,5.0,8.0,-999,-99.99,,,-99.99,,2013-05-05 19:02:00,
2013-05-05 09:12:00,69.0,-99.9,29.97,NE,50,5.0,9.0,-999,-99.99,,,-99.99,,2013-05-05 19:12:00,
2013-05-05 09:22:00,69.0,-99.9,29.96,ENE,58,4.0,6.0,-999,-99.99,,,-99.99,,2013-05-05 19:22:00,
2013-05-05 09:32:00,70.0,-99.9,29.97,ENE,60,4.0,6.0,-999,-99.99,,,-99.99,,2013-05-05 19:32:00,
2013-05-05 09:42:00,72.0,-99.9,29.97,East,80,1.0,5.0,-999,-99.99,,,-99.99,,2013-05-05 19:42:00,
2013-05-05 09:52:00,72.0,-99.9,29.97,East,93,2.0,4.0,-999,-99.99,,,-99.99,,2013-05-05 19:52:00,
2013-05-05 10:02:00,73.0,-99.9,29.97,East,96,3.0,7.0,-999,-99.99,,,-99.99,,2013-05-05 20:02:00,
2013-05-05 10:11:00,73.0,-99.9,29.97,East,96,3.0,7.0,-999,-99.99,,,-99.99,,2013-05-05 20:11:00,
2013-05-05 10:21:00,74.0,-99.9,29.96,East,96,2.0,4.0,-999,-99.99,,,-99.99,,2013-05-05 20:21:00,
2013-05-05 10:32:00,74.0,-99.9,29.96,ESE,102,2.0,4.0,-999,-99.99,,,-99.99,,2013-05-05 20:32:00,
2013-05-05 10:42:00,74.0,-99.9,29.96,SSW,195,4.0,6.0,-999,-99.99,,,-99.99,,2013-05-05 20:42:00,
2013-05-05 10:52:00,73.0,-99.9,29.96,SSW,206,5.0,8.0,-999,-99.99,,,-99.99,,2013-05-05 20:52:00,
2013-05-05 11:02:00,73.0,-99.9,29.96,SW,215,7.0,11.0,-999,-99.99,,,-99.99,,2013-05-05 21:02:00,
2013-05-05 11:11:00,73.0,-99.9,29.96,SW,219,3.0,5.0,-999,-99.99,,,-99.99,,2013-05-05 21:11:00,
2013-05-05 11:22:00,73.0,-99.9,29.96,SSE,150,1.0,4.0,-999,-99.99,,,-99.99,,2013-05-05 21:22:00,
2013-05-05 11:33:00,73.0,-99.9,29.95,SW,236,3.0,4.0,-999,-99.99,,,-99.99,,2013-05-05 21:33:00,
2013-05-05 11:42:00,74.0,-99.9,29.95,South,189,2.0,6.0,-999,-99.99,,,-99.99,,2013-05-05 21:42:00,
2013-05-05 11:53:00,75.0,-99.9,29.94,South,190,3.0,6.0,-999,-99.99,,,-99.99,,2013-05-05 21:53:00,
2013-05-05 12:03:00,73.0,-99.9,29.95,SE,129,5.0,12.0,-999,-99.99,,,-99.99,,2013-05-05 22:03:00,
2013-05-05 12:12:00,74.0,-99.9,29.94,SE,131,3.0,7.0,-999,-99.99,,,-99.99,,2013-05-05 22:12:00,
2013-05-05 12:23:00,74.0,-99.9,29.94,SSE,165,3.0,5.0,-999,-99.99,,,-99.99,,2013-05-05 22:23:00,
2013-05-05 12:34:00,74.0,-99.9,29.94,SE,138,4.0,8.0,-999,-99.99,,,-99.99,,2013-05-05 22:34:00,
2013-05-05 12:42:00,74.0,-99.9,29.93,SSW,197,4.0,5.0,-999,-99.99,,,-99.99,,2013-05-05 22:42:00,
2013-05-05 12:52:00,75.0,-99.9,29.94,SSW,209,11.0,15.0,-999,-99.99,,,-99.99,,2013-05-05 22:52:00,
2013-05-05 13:02:00,74.0,-99.9,29.93,South,172,1.0,5.0,-999,-99.99,,,-99.99,,2013-05-05 23:02:00,
2013-05-05 13:12:00,75.0,-99.9,29.93,WSW,243,2.0,5.0,-999,-99.99,,,-99.99,,2013-05-05 23:12:00,
2013-05-05 13:22:00,75.0,-99.9,29.93,WSW,245,9.0,13.0,-999,-99.99,,,-99.99,,2013-05-05 23:22:00,
2013-05-05 13:32:00,73.0,-99.9,29.92,SW,223,16.0,17.0,-999,-99.99,,,-99.99,,2013-05-05 23:32:00,
2013-05-05 13:42:00,74.0,-99.9,29.92,SW,234,18.0,23.0,-999,-99.99,,,-99.99,,2013-05-05 23:42:00,
2013-05-05 13:52:00,74.0,-99.9,29.92,SW,235,18.0,23.0,-999,-99.99,,,-99.99,,2013-05-05 23:52:00,
2013-05-05 14:01:00,74.0,-99.9,29.91,SW,232,17.0,21.0,-999,-99.99,,,-99.99,,2013-05-06 00:01:00,
2013-05-05 14:11:00,74.0,-99.9,29.91,SW,235,16.0,19.0,-999,-99.99,,,-99.99,,2013-05-06 00:11:00,
2013-05-05 14:22:00,74.0,-99.9,29.91,SW,231,17.0,19.0,-999,-99.99,,,-99.99,,2013-05-06 00:22:00,
2013-05-05 14:32:00,74.0,-99.9,29.91,SW,229,14.0,18.0,-999,-99.99,,,-99.99,,2013-05-06 00:32:00,
2013-05-05 14:42:00,74.0,-99.9,29.91,SW,231,16.0,20.0,-999,-99.99,,,-99.99,,2013-05-06 00:42:00,
2013-05-05 14:52:00,74.0,-99.9,29.91,SW,230,15.0,19.0,-999,-99.99,,,-99.99,,2013-05-06 00:52:00,
2013-05-05 15:01:00,74.0,-99.9,29.91,SW,226,14.0,19.0,-999,-99.99,,,-99.99,,2013-05-06 01:01:00,
2013-05-05 15:11:00,74.0,-99.9,29.90,SW,227,16.0,19.0,-999,-99.99,,,-99.99,,2013-05-06 01:11:00,
2013-05-05 15:21:00,74.0,-99.9,29.90,SW,229,14.0,18.0,-999,-99.99,,,-99.99,,2013-05-06 01:21:00,
2013-05-05 15:32:00,74.0,-99.9,29.90,SW,226,12.0,15.0,-999,-99.99,,,-99.99,,2013-05-06 01:32:00,
2013-05-05 15:42:00,75.0,-99.9,29.89,SW,221,13.0,16.0,-999,-99.99,,,-99.99,,2013-05-06 01:42:00,
2013-05-05 15:52:00,75.0,-99.9,29.89,SW,218,11.0,16.0,-999,-99.99,,,-99.99,,2013-05-06 01:52:00,
2013-05-05 16:02:00,74.0,-99.9,29.88,SW,218,11.0,17.0,-999,-99.99,,,-99.99,,2013-05-06 02:02:00,
2013-05-05 16:12:00,75.0,-99.9,29.88,SW,226,14.0,18.0,-999,-99.99,,,-99.99,,2013-05-06 02:12:00,
2013-05-05 16:21:00,74.0,-99.9,29.88,SW,220,15.0,19.0,-999,-99.99,,,-99.99,,2013-05-06 02:21:00,
2013-05-05 16:32:00,75.0,-99.9,29.88,SW,223,12.0,17.0,-999,-99.99,,,-99.99,,2013-05-06 02:32:00,
2013-05-05 16:42:00,75.0,-99.9,29.88,SW,216,11.0,15.0,-999,-99.99,,,-99.99,,2013-05-06 02:42:00,
2013-05-05 16:52:00,75.0,-99.9,29.88,SW,228,14.0,16.0,-999,-99.99,,,-99.99,,2013-05-06 02:52:00,
2013-05-05 17:02:00,75.0,-99.9,29.88,SW,220,11.0,14.0,-999,-99.99,,,-99.99,,2013-05-06 03:02:00,
2013-05-05 17:11:00,76.0,-99.9,29.88,SW,219,10.0,13.0,-999,-99.99,,,-99.99,,2013-05-06 03:11:00,
2013-05-05 17:22:00,76.0,-99.9,29.88,SW,216,10.0,14.0,-999,-99.99,,,-99.99,,2013-05-06 03:22:00,
2013-05-05 17:33:00,76.0,-99.9,29.88,SW,228,12.0,15.0,-999,-99.99,,,-99.99,,2013-05-06 03:33:00,
2013-05-05 17:43:00,76.0,-99.9,29.88,SW,214,8.0,12.0,-999,-99.99,,,-99.99,,2013-05-06 03:43:00,
2013-05-05 17:53:00,76.0,-99.9,29.88,SW,216,7.0,10.0,-999,-99.99,,,-99.99,,2013-05-06 03:53:00,
2013-05-05 18:02:00,76.0,-99.9,29.89,SSW,209,8.0,13.0,-999,-99.99,,,-99.99,,2013-05-06 04:02:00,
2013-05-05 18:12:00,76.0,-99.9,29.89,SW,234,11.0,13.0,-999,-99.99,,,-99.99,,2013-05-06 04:12:00,
2013-05-05 18:23:00,75.0,-99.9,29.89,SW,235,10.0,12.0,-999,-99.99,,,-99.99,,2013-05-06 04:23:00,
2013-05-05 18:32:00,75.0,-99.9,29.89,WSW,239,8.0,10.0,-999,-99.99,,,-99.99,,2013-05-06 04:32:00,
2013-05-05 18:43:00,75.0,-99.9,29.89,SW,232,7.0,9.0,-999,-99.99,,,-99.99,,2013-05-06 04:43:00,
2013-05-05 18:53:00,76.0,-99.9,29.89,SW,235,6.0,9.0,-999,-99.99,,,-99.99,,2013-05-06 04:53:00,
2013-05-05 19:03:00,76.0,-99.9,29.90,SW,224,10.0,13.0,-999,-99.99,,,-99.99,,2013-05-06 05:03:00,
2013-05-05 19:12:00,76.0,-99.9,29.90,SW,228,10.0,12.0,-999,-99.99,,,-99.99,,2013-05-06 05:12:00,
2013-05-05 19:22:00,76.0,-99.9,29.91,WSW,238,9.0,11.0,-999,-99.99,,,-99.99,,2013-05-06 05:22:00,
2013-05-05 19:32:00,76.0,-99.9,29.91,SW,236,8.0,10.0,-999,-99.99,,,-99.99,,2013-05-06 05:32:00,
2013-05-05 19:42:00,76.0,-99.9,29.91,West,263,7.0,9.0,-999,-99.99,,,-99.99,,2013-05-06 05:42:00,
2013-05-05 19:52:00,75.0,-99.9,29.91,WSW,245,6.0,9.0,-999,-99.99,,,-99.99,,2013-05-06 05:52:00,
2013-05-05 20:02:00,75.0,-99.9,29.92,ENE,72,1.0,2.0,-999,-99.99,,,-99.99,,2013-05-06 06:02:00,
2013-05-05 20:12:00,75.0,-99.9,29.92,SE,134,2.0,2.0,-999,-99.99,,,-99.99,,2013-05-06 06:12:00,
2013-05-05 20:22:00,76.0,-99.9,29.92,SSW,208,5.0,8.0,-999,-99.99,,,-99.99,,2013-05-06 06:22:00,
2013-05-05 20:32:00,76.0,-99.9,29.92,SW,227,10.0,11.0,-999,-99.99,,,-99.99,,2013-05-06 06:32:00,
2013-05-05 20:42:00,76.0,-99.9,29.92,WSW,245,9.0,14.0,-999,-99.99,,,-99.99,,2013-05-06 06:42:00,
2013-05-05 20:52:00,75.0,-99.9,29.92,WNW,300,7.0,10.0,-999,-99.99,,,-99.99,,2013-05-06 06:52:00,
2013-05-05 21:01:00,75.0,-99.9,29.93,NW,312,5.0,7.0,-999,-99.99,,,-99.99,,2013-05-06 07:01:00,
2013-05-05 21:11:00,74.0,-99.9,29.93,NW,319,4.0,6.0,-999,-99.99,,,-99.99,,2013-05-06 07:11:00,
2013-05-05 21:22:00,74.0,-99.9,29.93,NW,324,3.0,5.0,-999,-99.99,,,-99.99,,2013-05-06 07:22:00,
2013-05-05 21:32:00,74.0,-99.9,29.93,NNW,340,4.0,6.0,-999,-99.99,,,-99.99,,2013-05-06 07:32:00,
2013-05-05 21:42:00,75.0,-99.9,29.93,West,280,8.0,13.0,-999,-99.99,,,-99.99,,2013-05-06 07:42:00,
2013-05-05 21:52:00,76.0,-99.9,29.93,West,275,11.0,15.0,-999,-99.99,,,-99.99,,2013-05-06 07:52:00,
2013-05-05 22:02:00,74.0,-99.9,29.94,NW,305,7.0,9.0,-999,-99.99,,,-99.99,,2013-05-06 08:02:00,
2013-05-05 22:12:00,73.0,-99.9,29.94,NW,307,10.0,12.0,-999,-99.99,,,-99.99,,2013-05-06 08:12:00,
2013-05-05 22:22:00,72.0,-99.9,29.94,NW,317,13.0,15.0,-999,-99.99,,,-99.99,,2013-05-06 08:22:00,
2013-05-05 22:32:00,72.0,-99.9,29.95,NW,318,8.0,13.0,-999,-99.99,,,-99.99,,2013-05-06 08:32:00,
2013-05-05 22:42:00,71.0,-99.9,29.95,NNW,333,6.0,12.0,-999,-99.99,,,-99.99,,2013-05-06 08:42:00,
2013-05-05 22:52:00,71.0,-99.9,29.95,NNW,333,8.0,10.0,-999,-99.99,,,-99.99,,2013-05-06 08:52:00,
2013-05-05 23:02:00,71.0,-99.9,29.95,NNW,336,7.0,10.0,-999,-99.99,,,-99.99,,2013-05-06 09:02:00,
2013-05-05 23:11:00,71.0,-99.9,29.95,NNW,341,5.0,11.0,-999,-99.99,,,-99.99,,2013-05-06 09:11:00,
2013-05-05 23:22:00,71.0,-99.9,29.95,NNW,343,5.0,6.0,-999,-99.99,,,-99.99,,2013-05-06 09:22:00,
2013-05-05 23:33:00,71.0,-99.9,29.95,NNW,346,4.0,7.0,-999,-99.99,,,-99.99,,2013-05-06 09:33:00,
2013-05-05 23:43:00,71.0,-99.9,29.95,North,2,5.0,7.0,-999,-99.99,,,-99.99,,2013-05-06 09:43:00,
2013-05-05 23:53:00,71.0,-99.9,29.94,NNW,343,2.0,6.0,-999,-99.99,,,-99.99,,2013-05-06 09:53:00,